Time;durP1;ratioP1;P1;durP2;ratioP2;P2;SDS_P1;SDS_P2;PMS_P1;PMS_P2;Temp;Humidity;BMP_temperature;BMP_pressure;BME280_temperature;BME280_humidity;BME280_pressure;Samples;Min_cycle;Max_cycle;Signal;HPM_P1;HPM_P2
2022/08/25 00:00:30;;;;;;;;;15.25;15.00;;;;;28.65;39.16;100863.00;2105649;27;47567;-50
2022/08/25 00:01:35;;;;;;;;;16.75;14.00;;;;;28.64;38.80;100861.28;2112951;27;46779;-51
2022/08/25 00:02:36;;;;;;;;;17.00;16.80;;;;;28.63;39.01;100863.16;2112364;27;47805;-54
2022/08/25 00:03:37;;;;;;;;;15.20;15.20;;;;;28.61;39.16;100857.00;2104625;27;47914;-53
2022/08/25 00:04:37;;;;;;;;;17.00;15.25;;;;;28.60;39.10;100863.47;2105622;27;47291;-50
2022/08/25 00:05:38;;;;;;;;;13.25;12.50;;;;;28.59;39.41;100856.28;2105740;27;48162;-51
2022/08/25 00:06:41;;;;;;;;;16.40;16.20;;;;;28.57;38.86;100857.41;2104877;28;47560;-51
2022/08/25 00:07:42;;;;;;;;;15.60;15.60;;;;;28.55;39.15;100857.56;2105646;27;47465;-51
2022/08/25 00:08:42;;;;;;;;;19.75;18.25;;;;;28.55;39.08;100863.03;2105816;27;47490;-54
2022/08/25 00:09:44;;;;;;;;;16.75;16.75;;;;;28.54;39.27;100865.91;2104531;28;47386;-53
2022/08/25 00:10:44;;;;;;;;;15.60;15.40;;;;;28.53;38.95;100858.72;2105745;27;47953;-55
2022/08/25 00:11:47;;;;;;;;;17.00;17.00;;;;;28.52;39.32;100863.31;2104554;27;47945;-52
2022/08/25 00:12:48;;;;;;;;;18.20;18.00;;;;;28.52;39.67;100860.59;2105246;27;47281;-51
2022/08/25 00:13:53;;;;;;;;;16.00;16.00;;;;;28.52;39.29;100874.25;2106071;27;47964;-52
2022/08/25 00:14:53;;;;;;;;;16.00;15.20;;;;;28.51;39.13;100872.53;2104392;28;47416;-51
2022/08/25 00:15:54;;;;;;;;;16.50;16.50;;;;;28.51;39.10;100871.66;2112258;27;47642;-52
2022/08/25 00:16:54;;;;;;;;;15.50;15.50;;;;;28.50;39.31;100870.81;2110345;27;48007;-51
2022/08/25 00:17:55;;;;;;;;;15.75;15.75;;;;;28.51;39.35;100869.78;2104680;28;47847;-51
2022/08/25 00:18:58;;;;;;;;;15.00;15.00;;;;;28.50;39.41;100864.47;2106053;27;47296;-50
2022/08/25 00:19:59;;;;;;;;;15.80;15.40;;;;;28.49;39.31;100858.16;2105730;27;47603;-52
2022/08/25 00:20:59;;;;;;;;;19.00;19.00;;;;;28.50;39.41;100862.63;2104652;28;47771;-53
2022/08/25 00:22:00;;;;;;;;;16.00;15.25;;;;;28.50;39.14;100865.34;2105522;27;47329;-51
2022/08/25 00:23:00;;;;;;;;;10.50;10.50;;;;;28.49;39.36;100858.16;2104764;28;47404;-52
2022/08/25 00:24:01;;;;;;;;;21.25;17.00;;;;;28.49;39.80;100854.56;2112391;27;47396;-53
2022/08/25 00:25:02;;;;;;;;;16.40;16.40;;;;;28.48;39.49;100855.56;2100441;28;45780;-53
2022/08/25 00:26:03;;;;;;;;;17.80;16.60;;;;;28.47;39.58;100848.41;2094566;28;46636;-51
2022/08/25 00:27:05;;;;;;;;;17.00;16.00;;;;;28.46;39.22;100860.28;2095896;28;47595;-52
2022/08/25 00:28:05;;;;;;;;;14.40;13.20;;;;;28.45;39.38;100851.25;2095954;28;47423;-51
2022/08/25 00:29:07;;;;;;;;;16.00;16.00;;;;;28.44;39.72;100850.38;2095003;28;48051;-50
2022/08/25 00:30:09;;;;;;;;;15.20;15.20;;;;;28.44;39.53;100855.84;2096054;28;46907;-51
2022/08/25 00:31:15;;;;;;;;;11.00;11.00;;;;;28.42;39.52;100844.22;2090223;28;47646;-50
2022/08/25 00:32:17;;;;;;;;;15.00;15.00;;;;;28.42;39.85;100846.09;2095150;28;47462;-54
2022/08/25 00:33:17;;;;;;;;;16.60;16.20;;;;;28.42;39.51;100846.94;2096161;28;48070;-54
2022/08/25 00:34:26;;;;;;;;;21.00;19.00;;;;;28.41;39.60;100841.63;2095021;28;47951;-52
2022/08/25 00:35:26;;;;;;;;;17.40;16.80;;;;;28.41;39.83;100838.91;2095951;28;46577;-52
2022/08/25 00:36:27;;;;;;;;;17.75;17.00;;;;;28.40;39.95;100842.66;2095901;28;47603;-54
2022/08/25 00:37:28;;;;;;;;;15.60;15.20;;;;;28.39;39.71;100841.78;2094978;28;47605;-49
2022/08/25 00:38:28;;;;;;;;;16.25;16.25;;;;;28.38;40.00;100834.59;2095942;28;47798;-52
2022/08/25 00:39:29;;;;;;;;;20.25;19.75;;;;;28.38;39.74;100841.94;2095587;28;47488;-52
2022/08/25 00:40:29;;;;;;;;;16.50;16.50;;;;;28.38;39.73;100840.06;2092372;28;47784;-52
2022/08/25 00:41:30;;;;;;;;;15.50;15.50;;;;;28.36;39.50;100841.22;2093006;28;45773;-54
2022/08/25 00:42:30;;;;;;;;;18.00;18.00;;;;;28.36;39.57;100841.22;2078329;28;47117;-53
2022/08/25 00:43:39;;;;;;;;;19.25;17.25;;;;;28.36;39.81;100846.69;2078643;28;47828;-52
2022/08/25 00:44:40;;;;;;;;;18.40;17.20;;;;;28.35;39.75;100842.22;2096062;28;47613;-52
2022/08/25 00:45:40;;;;;;;;;19.50;19.50;;;;;28.33;39.75;100847.84;2095133;28;47304;-52
2022/08/25 00:46:50;;;;;;;;;20.00;19.25;;;;;28.34;39.77;100844.09;2096172;28;47341;-51
2022/08/25 00:47:51;;;;;;;;;18.20;18.20;;;;;28.33;39.61;100844.22;2095642;28;45344;-52
2022/08/25 00:49:05;;;;;;;;;18.50;18.50;;;;;28.33;39.79;100841.47;2095401;28;47491;-54
2022/08/25 00:50:08;;;;;;;;;19.80;19.00;;;;;28.31;39.89;100838.91;2086451;28;47494;-51
2022/08/25 00:51:13;;;;;;;;;20.00;19.40;;;;;28.31;39.93;100841.63;2091457;28;47291;-51
2022/08/25 00:52:17;;;;;;;;;20.20;20.20;;;;;28.30;39.97;100839.06;2095343;28;47722;-49
2022/08/25 00:53:17;;;;;;;;;18.80;18.80;;;;;28.28;39.85;100839.19;2094890;28;47650;-52
2022/08/25 00:54:23;;;;;;;;;19.75;18.75;;;;;28.29;39.67;100834.59;2095449;28;47177;-52
2022/08/25 00:55:28;;;;;;;;;19.40;17.20;;;;;28.29;39.96;100837.34;2094726;28;47522;-53
2022/08/25 00:56:30;;;;;;;;;18.20;17.20;;;;;28.27;39.88;100834.75;2096898;28;49011;-51
2022/08/25 00:57:36;;;;;;;;;16.00;15.40;;;;;28.27;39.72;100837.47;2105240;27;46911;-52
2022/08/25 00:58:37;;;;;;;;;16.00;16.00;;;;;28.26;39.76;100838.44;2104490;28;47798;-51
2022/08/25 00:59:39;;;;;;;;;18.80;15.20;;;;;28.24;40.01;100832.28;2105198;27;47993;-52
2022/08/25 01:00:44;;;;;;;;;13.20;13.20;;;;;28.24;40.10;100835.00;2105580;27;47448;-50
2022/08/25 01:01:44;;;;;;;;;18.60;17.00;;;;;28.22;39.83;100830.72;2104169;28;47907;-54
2022/08/25 01:02:45;;;;;;;;;17.75;17.75;;;;;28.21;40.03;100829.84;2105657;27;47948;-50
2022/08/25 01:03:45;;;;;;;;;17.25;16.50;;;;;28.20;39.94;100835.44;2104626;27;47666;-52
2022/08/25 01:04:46;;;;;;;;;15.00;15.00;;;;;28.19;39.66;100831.84;2104921;27;47476;-51
2022/08/25 01:05:48;;;;;;;;;14.00;14.00;;;;;28.18;40.08;100823.78;2105299;27;47679;-52
2022/08/25 01:06:48;;;;;;;;;16.60;16.60;;;;;28.18;39.71;100832.84;2104382;28;47264;-52
2022/08/25 01:07:51;;;;;;;;;15.00;15.00;;;;;28.18;39.72;100837.44;2105536;27;46661;-52
2022/08/25 01:08:52;;;;;;;;;13.60;13.20;;;;;28.18;40.28;100832.84;2105810;27;47959;-51
2022/08/25 01:09:53;;;;;;;;;14.40;14.40;;;;;28.18;39.85;100835.56;2104875;27;46546;-54
2022/08/25 01:10:55;;;;;;;;;17.50;15.25;;;;;28.18;40.16;100843.75;2097771;28;47446;-53
2022/08/25 01:11:56;;;;;;;;;12.40;12.20;;;;;28.18;39.93;100832.84;2098227;28;47278;-54
2022/08/25 01:13:06;;;;;;;;;16.50;15.25;;;;;28.17;39.91;100831.13;2105832;28;47710;-52
2022/08/25 01:14:09;;;;;;;;;12.60;12.60;;;;;28.16;40.34;100834.88;2107073;27;48081;-51
2022/08/25 01:15:12;;;;;;;;;16.00;15.60;;;;;28.17;39.96;100828.41;2107118;27;47326;-53
2022/08/25 01:16:14;;;;;;;;;16.00;16.00;;;;;28.17;40.20;100838.44;2114222;27;47485;-49
2022/08/25 01:17:15;;;;;;;;;15.20;14.40;;;;;28.17;39.90;100828.41;2099955;28;47748;-54
2022/08/25 01:18:16;;;;;;;;;13.50;13.25;;;;;28.17;40.24;100830.25;2096433;28;48073;-52
2022/08/25 01:19:16;;;;;;;;;17.00;17.00;;;;;28.17;40.03;100828.41;2106843;27;47716;-54
2022/08/25 01:20:19;;;;;;;;;15.00;15.00;;;;;28.17;40.07;100830.25;2106562;27;47654;-50
2022/08/25 01:21:22;;;;;;;;;14.20;14.20;;;;;28.15;39.79;100825.81;2105631;28;47381;-50
2022/08/25 01:22:25;;;;;;;;;15.00;15.00;;;;;28.16;39.86;100829.41;2106963;27;47353;-51
2022/08/25 01:23:26;;;;;;;;;14.80;14.00;;;;;28.15;40.06;100839.47;2106522;27;47723;-51
2022/08/25 01:24:58;;;;;;;;;12.75;12.75;;;;;28.14;40.23;100829.56;2087453;28;47312;-49
2022/08/25 01:26:16;;;;;;;;;15.80;15.40;;;;;28.15;40.33;100841.31;2097343;28;47632;-51
2022/08/25 01:27:16;;;;;;;;;16.40;15.00;;;;;28.14;40.39;100831.41;2106569;27;47499;-52
2022/08/25 01:28:19;;;;;;;;;17.50;16.75;;;;;28.13;40.15;100833.28;2106481;27;47805;-51
2022/08/25 01:29:24;;;;;;;;;15.40;15.00;;;;;28.13;40.12;100838.75;2105865;28;47765;-53
2022/08/25 01:30:25;;;;;;;;;16.40;15.00;;;;;28.13;40.28;100836.00;2106535;27;47551;-54
2022/08/25 01:31:28;;;;;;;;;18.40;18.40;;;;;28.13;39.97;100837.88;2101256;27;48059;-51
2022/08/25 01:32:33;;;;;;;;;25.60;24.20;;;;;28.12;40.36;100838.91;2105601;28;47934;-50
2022/08/25 01:33:34;;;;;;;;;21.60;21.60;;;;;28.11;40.17;100839.91;2106887;27;47641;-52
2022/08/25 01:34:36;;;;;;;;;18.75;18.75;;;;;28.10;40.19;100835.44;2080353;28;48036;-53
2022/08/25 01:35:39;;;;;;;;;16.60;16.60;;;;;28.10;40.55;100832.72;2080305;28;47249;-51
2022/08/25 01:36:42;;;;;;;;;22.00;19.00;;;;;28.08;40.04;100832.00;2101272;28;47461;-51
2022/08/25 01:37:42;;;;;;;;;19.20;18.00;;;;;28.08;40.17;100826.56;2079425;28;47242;-52
2022/08/25 01:38:42;;;;;;;;;19.75;17.50;;;;;28.06;40.39;100828.53;2080070;28;48002;-51
2022/08/25 01:39:43;;;;;;;;;18.00;18.00;;;;;28.05;40.42;100833.13;2106712;27;47181;-49
2022/08/25 01:40:43;;;;;;;;;20.50;17.75;;;;;28.02;40.01;100827.97;2105717;28;48045;-52
2022/08/25 01:42:10;;;;;;;;;14.75;14.75;;;;;28.00;40.07;100832.72;2106557;27;47747;-53
2022/08/25 01:43:13;;;;;;;;;15.00;13.00;;;;;27.98;40.67;100834.72;2097537;28;47244;-51
2022/08/25 01:44:15;;;;;;;;;15.20;13.40;;;;;27.96;40.40;100841.34;2097652;27;47517;-51
2022/08/25 01:45:15;;;;;;;;;15.60;15.60;;;;;27.92;40.36;100835.28;2096551;28;47388;-49
2022/08/25 01:46:16;;;;;;;;;14.75;14.25;;;;;27.90;40.34;100837.28;2097747;28;47919;-52
2022/08/25 01:47:16;;;;;;;;;13.75;13.00;;;;;27.87;40.25;100843.03;2096586;28;47640;-54
2022/08/25 01:48:18;;;;;;;;;15.00;15.00;;;;;27.84;40.43;100838.72;2088887;28;47132;-52
2022/08/25 01:49:18;;;;;;;;;14.00;12.60;;;;;27.84;40.59;100841.47;2097632;28;47558;-53
2022/08/25 01:50:19;;;;;;;;;13.50;13.50;;;;;27.82;40.46;100845.31;2105578;27;47382;-52
2022/08/25 01:51:23;;;;;;;;;10.50;10.50;;;;;27.80;40.37;100834.53;2106488;27;48390;-53
2022/08/25 01:52:31;;;;;;;;;16.40;16.40;;;;;27.79;40.78;100845.59;2107743;27;47544;-53
2022/08/25 01:53:31;;;;;;;;;14.60;14.40;;;;;27.77;40.52;100837.56;2105654;28;47445;-51
2022/08/25 01:54:32;;;;;;;;;15.00;15.00;;;;;27.76;40.99;100835.84;2099107;28;47665;-51
2022/08/25 01:55:50;;;;;;;;;12.50;12.50;;;;;27.78;40.56;100828.38;2096365;28;47458;-54
2022/08/25 01:56:50;;;;;;;;;14.60;13.60;;;;;27.78;40.93;100828.38;2105351;28;47662;-52
2022/08/25 01:57:52;;;;;;;;;15.50;15.00;;;;;27.79;41.15;100824.66;2106967;27;47106;-51
2022/08/25 01:58:52;;;;;;;;;14.40;14.40;;;;;27.80;40.96;100825.50;2105930;27;47981;-53
2022/08/25 01:59:52;;;;;;;;;17.25;17.25;;;;;27.80;40.83;100823.63;2106839;27;47711;-53
2022/08/25 02:00:56;;;;;;;;;12.75;12.75;;;;;27.81;40.46;100821.78;2106934;27;47700;-52
2022/08/25 02:01:56;;;;;;;;;14.60;14.60;;;;;27.81;40.53;100822.63;2105613;28;47369;-50
2022/08/25 02:02:56;;;;;;;;;13.25;13.25;;;;;27.81;40.90;100814.44;2107241;27;47312;-55
2022/08/25 02:03:57;;;;;;;;;12.75;12.75;;;;;27.81;40.27;100814.44;2107010;27;47657;-54
2022/08/25 02:04:57;;;;;;;;;13.75;13.75;;;;;27.81;40.57;100817.19;2105612;28;47617;-51
2022/08/25 02:06:00;;;;;;;;;16.75;14.75;;;;;27.82;40.56;100818.94;2098218;28;47798;-48
2022/08/25 02:07:02;;;;;;;;;13.60;13.60;;;;;27.83;40.73;100817.06;2097676;27;47740;-53
2022/08/25 02:08:03;;;;;;;;;15.20;15.00;;;;;27.83;40.74;100811.59;2105818;27;45776;-51
2022/08/25 02:09:08;;;;;;;;;18.25;15.25;;;;;27.82;40.06;100804.41;2098004;28;47610;-52
2022/08/25 02:10:12;;;;;;;;;15.40;15.40;;;;;27.82;40.68;100807.13;2097603;27;47463;-52
2022/08/25 02:11:13;;;;;;;;;13.00;12.20;;;;;27.81;40.41;100800.81;2106388;27;47954;-48
2022/08/25 02:12:14;;;;;;;;;14.25;14.25;;;;;27.82;40.18;100793.50;2107144;27;47515;-51
2022/08/25 02:13:14;;;;;;;;;14.25;14.25;;;;;27.83;40.43;100792.50;2105481;28;47414;-56
2022/08/25 02:14:17;;;;;;;;;13.00;13.00;;;;;27.82;40.71;100791.66;2106563;27;46797;-52
2022/08/25 02:15:17;;;;;;;;;14.00;13.80;;;;;27.82;40.10;100794.38;2107657;27;48124;-50
2022/08/25 02:16:31;;;;;;;;;15.00;13.50;;;;;27.83;39.99;100795.25;2113970;27;47471;-53
2022/08/25 02:17:34;;;;;;;;;11.20;11.20;;;;;27.81;40.14;100803.53;2106139;27;47482;-54
2022/08/25 02:18:35;;;;;;;;;15.20;14.80;;;;;27.81;40.38;100799.94;2106624;27;47646;-54
2022/08/25 02:19:35;;;;;;;;;14.75;12.50;;;;;27.81;40.23;100798.09;2105237;28;47398;-53
2022/08/25 02:20:36;;;;;;;;;13.25;13.25;;;;;27.80;39.98;100796.38;2106719;27;47954;-51
2022/08/25 02:21:38;;;;;;;;;12.00;11.60;;;;;27.80;40.40;100790.91;2105888;27;47832;-53
2022/08/25 02:22:38;;;;;;;;;15.20;14.40;;;;;27.81;40.20;100794.50;2105671;28;47865;-52
2022/08/25 02:23:41;;;;;;;;;12.25;11.75;;;;;27.80;40.08;100796.38;2106389;27;47818;-52
2022/08/25 02:24:41;;;;;;;;;13.20;12.20;;;;;27.80;39.78;100787.31;2105433;27;48136;-52
2022/08/25 02:25:43;;;;;;;;;14.75;13.50;;;;;27.79;39.98;100791.06;2106601;27;47476;-52
2022/08/25 02:26:43;;;;;;;;;12.00;12.00;;;;;27.79;40.25;100791.91;2106715;27;47638;-50
2022/08/25 02:27:44;;;;;;;;;11.00;11.00;;;;;27.79;39.57;100786.47;2105325;27;47210;-53
2022/08/25 02:28:46;;;;;;;;;14.60;14.00;;;;;27.79;39.92;100785.59;2106551;27;47356;-52
2022/08/25 02:29:47;;;;;;;;;16.20;16.20;;;;;27.78;39.70;100782.00;2105288;27;47335;-51
2022/08/25 02:30:47;;;;;;;;;19.00;18.25;;;;;27.77;39.36;100780.28;2103350;28;47404;-50
2022/08/25 02:31:48;;;;;;;;;18.25;18.25;;;;;27.77;39.50;100787.63;2103218;27;47781;-50
2022/08/25 02:32:48;;;;;;;;;18.25;17.25;;;;;27.77;39.79;100782.16;2105951;27;47896;-49
2022/08/25 02:33:50;;;;;;;;;17.50;17.50;;;;;27.77;39.88;100782.16;2105847;27;47727;-52
2022/08/25 02:34:50;;;;;;;;;22.20;20.80;;;;;27.76;39.44;100770.38;2106419;27;47517;-53
2022/08/25 02:35:50;;;;;;;;;21.50;20.75;;;;;27.76;40.19;100773.13;2104814;27;47790;-54
2022/08/25 02:36:51;;;;;;;;;17.75;17.75;;;;;27.75;40.23;100774.13;2106511;27;47727;-51
2022/08/25 02:37:52;;;;;;;;;17.00;16.00;;;;;27.77;39.96;100768.53;2106424;27;45666;-49
2022/08/25 02:38:53;;;;;;;;;17.80;17.80;;;;;27.75;39.81;100765.09;2105222;28;47309;-51
2022/08/25 02:39:53;;;;;;;;;16.00;16.00;;;;;27.74;39.57;100769.69;2106051;27;47465;-50
2022/08/25 02:40:58;;;;;;;;;16.00;14.75;;;;;27.73;39.66;100764.38;2105782;27;47351;-53
2022/08/25 02:41:58;;;;;;;;;15.00;15.00;;;;;27.72;40.04;100768.97;2104882;28;47709;-49
2022/08/25 02:42:59;;;;;;;;;14.50;14.50;;;;;27.72;39.62;100766.25;2110008;27;47674;-51
2022/08/25 02:44:01;;;;;;;;;15.50;14.75;;;;;27.72;39.53;100766.25;2113803;27;47380;-51
2022/08/25 02:45:03;;;;;;;;;16.20;16.00;;;;;27.72;39.62;100774.41;2106866;27;47396;-50
2022/08/25 02:46:04;;;;;;;;;14.00;14.00;;;;;27.72;39.43;100770.84;2105724;27;47967;-52
2022/08/25 02:47:04;;;;;;;;;12.50;12.50;;;;;27.71;39.19;100771.84;2105371;28;47636;-50
2022/08/25 02:48:04;;;;;;;;;15.75;14.00;;;;;27.72;39.48;100773.56;2106033;27;47434;-50
2022/08/25 02:49:06;;;;;;;;;15.00;13.00;;;;;27.71;39.66;100766.38;2106057;27;46748;-52
2022/08/25 02:50:08;;;;;;;;;14.60;14.60;;;;;27.70;39.26;100764.66;2095913;28;47528;-52
2022/08/25 02:51:10;;;;;;;;;12.20;11.60;;;;;27.70;39.57;100768.25;2097433;28;47198;-52
2022/08/25 02:52:10;;;;;;;;;15.40;13.00;;;;;27.70;39.45;100760.06;2106658;27;47922;-50
2022/08/25 02:53:11;;;;;;;;;13.50;12.25;;;;;27.69;39.64;100762.91;2112670;27;47752;-53
2022/08/25 02:54:11;;;;;;;;;12.75;11.75;;;;;27.68;39.33;100767.50;2108600;27;47679;-52
2022/08/25 02:55:13;;;;;;;;;11.00;10.75;;;;;27.67;39.46;100770.38;2105456;28;47493;-51
2022/08/25 02:56:14;;;;;;;;;12.80;12.80;;;;;27.67;39.38;100762.19;2106509;27;47890;-50
2022/08/25 02:57:15;;;;;;;;;12.00;12.00;;;;;27.66;40.02;100764.06;2105328;27;48400;-51
2022/08/25 02:58:15;;;;;;;;;14.50;14.50;;;;;27.66;40.08;100757.75;2097212;27;47687;-51
2022/08/25 02:59:17;;;;;;;;;14.50;14.50;;;;;27.65;39.78;100750.56;2099211;28;47225;-53
2022/08/25 03:00:17;;;;;;;;;10.40;10.40;;;;;27.64;39.80;100754.28;2086822;28;47203;-52
2022/08/25 03:01:18;;;;;;;;;11.00;11.00;;;;;27.63;39.59;100758.88;2088502;28;47699;-51
2022/08/25 03:02:18;;;;;;;;;12.00;12.00;;;;;27.63;39.91;100756.16;2098053;28;47040;-51
2022/08/25 03:03:19;;;;;;;;;13.50;13.50;;;;;27.62;39.81;100751.69;2096097;28;47419;-54
2022/08/25 03:04:19;;;;;;;;;18.00;16.60;;;;;27.63;39.36;100753.41;2106613;27;47832;-52
2022/08/25 03:05:20;;;;;;;;;14.25;12.75;;;;;27.62;39.47;100751.69;2105434;27;48021;-54
2022/08/25 03:06:22;;;;;;;;;11.00;11.00;;;;;27.61;39.79;100749.13;2106474;27;47682;-53
2022/08/25 03:07:23;;;;;;;;;13.00;13.00;;;;;27.59;40.01;100752.00;2108915;27;47710;-51
2022/08/25 03:08:24;;;;;;;;;11.75;11.75;;;;;27.60;39.54;100750.13;2104354;28;47353;-53
2022/08/25 03:09:26;;;;;;;;;13.80;11.00;;;;;27.59;39.54;100749.25;2098235;28;48024;-52
2022/08/25 03:10:26;;;;;;;;;14.20;12.40;;;;;27.59;39.42;100752.00;2106417;27;47573;-53
2022/08/25 03:11:27;;;;;;;;;13.25;12.50;;;;;27.59;39.79;100748.41;2078656;28;45651;-54
2022/08/25 03:12:28;;;;;;;;;14.40;13.20;;;;;27.56;39.92;100752.25;2080269;28;47502;-52
2022/08/25 03:13:28;;;;;;;;;13.00;13.00;;;;;27.56;40.00;100757.69;2071412;28;47220;-50
2022/08/25 03:14:29;;;;;;;;;12.50;12.25;;;;;27.55;39.86;100748.66;2071453;28;47477;-53
2022/08/25 03:15:29;;;;;;;;;14.75;14.25;;;;;27.54;40.00;100754.25;2057046;28;47809;-53
2022/08/25 03:16:30;;;;;;;;;12.75;12.25;;;;;27.53;39.55;100753.41;2062549;28;48175;-53
2022/08/25 03:17:31;;;;;;;;;10.25;10.25;;;;;27.53;40.15;100756.13;2064148;28;47986;-53
2022/08/25 03:18:31;;;;;;;;;15.00;14.25;;;;;27.52;39.98;100759.00;2063899;28;46659;-51
2022/08/25 03:19:32;;;;;;;;;14.25;14.25;;;;;27.50;39.99;100755.56;2070841;28;48411;-51
2022/08/25 03:20:34;;;;;;;;;15.25;12.50;;;;;27.49;40.07;100757.41;2070951;28;47534;-49
2022/08/25 03:21:37;;;;;;;;;12.00;12.00;;;;;27.49;40.00;100757.41;2079338;28;48522;-52
2022/08/25 03:22:38;;;;;;;;;14.20;13.40;;;;;27.48;39.79;100752.97;2079269;28;48067;-54
2022/08/25 03:23:40;;;;;;;;;14.00;13.50;;;;;27.48;39.68;100755.69;2080172;28;47766;-50
2022/08/25 03:24:40;;;;;;;;;14.40;14.40;;;;;27.48;39.84;100750.25;2079234;28;47652;-54
2022/08/25 03:27:00;;;;;;;;;14.60;14.40;;;;;27.47;40.25;100751.25;2079817;28;47411;-53
2022/08/25 03:28:01;;;;;;;;;11.50;11.50;;;;;27.47;39.77;100753.97;2079010;28;47771;-53
2022/08/25 03:29:04;;;;;;;;;12.00;12.00;;;;;27.47;40.29;100742.22;2071226;28;47687;-53
2022/08/25 03:30:05;;;;;;;;;12.60;11.60;;;;;27.47;40.34;100744.94;2070597;28;47297;-52
2022/08/25 03:31:07;;;;;;;;;13.40;13.40;;;;;27.47;40.04;100736.75;2074693;28;47355;-55
2022/08/25 03:32:08;;;;;;;;;13.60;12.20;;;;;27.45;40.15;100741.50;2079033;28;47268;-52
2022/08/25 03:33:09;;;;;;;;;14.60;13.60;;;;;27.45;39.83;100739.63;2078967;28;47485;-54
2022/08/25 03:34:12;;;;;;;;;12.60;12.60;;;;;27.45;40.18;100736.91;2061596;28;47830;-51
2022/08/25 03:35:13;;;;;;;;;14.00;12.00;;;;;27.44;40.19;100737.91;2063785;28;47724;-55
2022/08/25 03:36:14;;;;;;;;;13.20;12.60;;;;;27.43;40.00;100741.63;2079981;28;47530;-54
2022/08/25 03:37:14;;;;;;;;;12.80;12.80;;;;;27.43;40.12;100738.03;2078771;28;47784;-51
2022/08/25 03:38:15;;;;;;;;;12.00;11.00;;;;;27.42;40.17;100736.31;2079936;28;47595;-53
2022/08/25 03:39:18;;;;;;;;;12.40;11.60;;;;;27.41;40.28;100732.72;2078782;28;47701;-54
2022/08/25 03:40:18;;;;;;;;;9.20;9.20;;;;;27.40;40.03;100732.88;2079345;28;47746;-54
2022/08/25 03:41:22;;;;;;;;;13.00;13.00;;;;;27.37;39.91;100727.72;2079728;28;47636;-51
2022/08/25 03:42:23;;;;;;;;;14.60;14.00;;;;;27.36;40.05;100723.25;2078779;28;48759;-47
2022/08/25 03:43:23;;;;;;;;;15.60;15.60;;;;;27.36;40.63;100717.81;2097266;28;47319;-54
2022/08/25 03:44:24;;;;;;;;;13.00;13.00;;;;;27.34;40.00;100709.78;2105593;27;47279;-55
2022/08/25 03:45:24;;;;;;;;;13.50;13.00;;;;;27.33;40.49;100704.47;2105005;28;46564;-53
2022/08/25 03:46:27;;;;;;;;;11.00;9.75;;;;;27.33;40.13;100707.19;2105818;27;47685;-52
2022/08/25 03:47:28;;;;;;;;;13.00;12.40;;;;;27.33;40.17;100710.78;2096911;28;47944;-54
2022/08/25 03:48:28;;;;;;;;;12.50;12.50;;;;;27.33;39.72;100699.03;2095956;28;47988;-50
2022/08/25 03:49:30;;;;;;;;;11.75;11.75;;;;;27.31;40.49;100706.44;2105639;27;47447;-50
2022/08/25 03:50:30;;;;;;;;;12.00;12.00;;;;;27.30;40.08;100702.88;2104862;28;47666;-54
2022/08/25 03:51:34;;;;;;;;;12.25;12.25;;;;;27.30;40.19;100710.19;2112546;27;47300;-53
2022/08/25 03:52:36;;;;;;;;;11.40;11.20;;;;;27.28;40.46;100711.19;2099783;28;47895;-51
2022/08/25 03:53:37;;;;;;;;;12.80;12.80;;;;;27.27;39.98;100711.34;2095633;28;47515;-52
2022/08/25 03:54:38;;;;;;;;;11.25;11.25;;;;;27.27;39.83;100705.88;2105800;27;47502;-52
2022/08/25 03:55:39;;;;;;;;;11.00;11.00;;;;;27.26;39.98;100699.56;2105354;27;47394;-53
2022/08/25 03:56:39;;;;;;;;;14.20;14.20;;;;;27.25;39.79;100714.19;2105294;27;47938;-52
2022/08/25 03:57:40;;;;;;;;;11.75;11.75;;;;;27.24;40.10;100703.44;2105945;27;47680;-55
2022/08/25 03:58:40;;;;;;;;;13.75;13.75;;;;;27.23;40.24;100708.03;2104342;28;47384;-53
2022/08/25 03:59:41;;;;;;;;;12.75;12.75;;;;;27.21;40.27;100701.00;2096820;28;48080;-54
2022/08/25 04:00:41;;;;;;;;;11.75;11.75;;;;;27.21;39.63;100701.00;2096718;28;47649;-50
2022/08/25 04:01:43;;;;;;;;;12.00;12.00;;;;;27.20;39.99;100702.88;2096057;28;47486;-52
2022/08/25 04:02:44;;;;;;;;;13.20;12.00;;;;;27.20;40.12;100702.03;2096939;28;47866;-54
2022/08/25 04:03:45;;;;;;;;;14.25;14.25;;;;;27.19;39.87;100712.06;2105561;27;47635;-52
2022/08/25 04:04:46;;;;;;;;;12.00;11.00;;;;;27.19;40.12;100709.34;2105072;27;47351;-53
2022/08/25 04:05:46;;;;;;;;;12.00;12.00;;;;;27.17;40.46;100713.16;2099816;28;46434;-52
2022/08/25 04:06:47;;;;;;;;;10.50;10.50;;;;;27.17;39.63;100705.84;2103970;28;47170;-51
2022/08/25 04:07:47;;;;;;;;;12.00;12.00;;;;;27.16;40.13;100715.03;2095403;28;47454;-52
2022/08/25 04:08:48;;;;;;;;;14.00;12.25;;;;;27.16;40.27;100717.75;2095284;28;47981;-51
2022/08/25 04:09:48;;;;;;;;;12.25;12.25;;;;;27.16;40.13;100714.19;2104837;28;47502;-52
2022/08/25 04:10:48;;;;;;;;;13.75;12.50;;;;;27.15;39.57;100724.22;2106249;27;47630;-53
2022/08/25 04:11:50;;;;;;;;;11.50;11.25;;;;;27.14;39.91;100719.78;2105523;27;47184;-52
2022/08/25 04:12:50;;;;;;;;;12.60;12.60;;;;;27.13;40.33;100726.22;2105145;27;48103;-52
2022/08/25 04:13:52;;;;;;;;;12.50;12.50;;;;;27.12;39.71;100726.38;2105730;27;47416;-55
2022/08/25 04:14:52;;;;;;;;;11.00;11.00;;;;;27.12;39.67;100729.94;2104710;28;47664;-50
2022/08/25 04:15:52;;;;;;;;;12.25;12.25;;;;;27.11;39.83;100725.50;2110800;27;47625;-54
2022/08/25 04:16:53;;;;;;;;;14.75;13.50;;;;;27.12;40.44;100729.09;2110369;27;47657;-54
2022/08/25 04:17:53;;;;;;;;;14.75;13.75;;;;;27.11;40.34;100725.50;2104787;28;47654;-50
2022/08/25 04:18:54;;;;;;;;;12.00;12.00;;;;;27.09;40.30;100727.50;2106159;27;47299;-53
2022/08/25 04:19:56;;;;;;;;;13.20;13.20;;;;;27.09;40.12;100726.66;2105289;27;48042;-52
2022/08/25 04:21:04;;;;;;;;;12.00;12.00;;;;;27.05;40.53;100725.19;2086668;28;47662;-50
2022/08/25 04:22:05;;;;;;;;;13.80;13.80;;;;;27.03;40.44;100727.19;2090181;28;47626;-51
2022/08/25 04:23:05;;;;;;;;;12.50;11.75;;;;;27.02;40.71;100722.75;2105146;27;47790;-53
2022/08/25 04:24:08;;;;;;;;;18.50;15.75;;;;;27.01;40.93;100738.22;2105487;27;47408;-50
2022/08/25 04:25:09;;;;;;;;;14.00;13.00;;;;;27.02;40.47;100733.63;2106015;27;47198;-52
2022/08/25 04:26:12;;;;;;;;;13.50;13.50;;;;;26.99;41.07;100737.47;2104467;28;47706;-52
2022/08/25 04:27:13;;;;;;;;;18.00;15.80;;;;;26.98;41.04;100727.59;2103313;28;47540;-52
2022/08/25 04:28:13;;;;;;;;;13.75;13.75;;;;;26.96;40.52;100733.19;2102563;28;47253;-52
2022/08/25 04:29:16;;;;;;;;;10.25;10.25;;;;;26.95;41.18;100734.19;2104846;28;47400;-52
2022/08/25 04:30:17;;;;;;;;;10.80;10.80;;;;;26.93;40.61;100733.47;2096374;28;48124;-52
2022/08/25 04:31:20;;;;;;;;;13.20;12.40;;;;;26.92;40.74;100733.56;2091879;27;47888;-49
2022/08/25 04:32:21;;;;;;;;;14.20;14.20;;;;;26.91;41.41;100737.28;2104289;28;47605;-50
2022/08/25 04:33:21;;;;;;;;;12.25;12.25;;;;;26.90;41.13;100739.16;2105777;27;48183;-48
2022/08/25 04:34:24;;;;;;;;;13.00;12.00;;;;;26.91;40.98;100742.75;2104829;28;47837;-51
2022/08/25 04:35:25;;;;;;;;;15.60;13.60;;;;;26.91;40.75;100745.47;2105832;27;47652;-54
2022/08/25 04:36:25;;;;;;;;;11.75;11.75;;;;;26.91;41.24;100740.88;2107883;27;47729;-53
2022/08/25 04:37:26;;;;;;;;;11.00;11.00;;;;;26.91;40.81;100738.16;2113444;27;47811;-51
2022/08/25 04:38:26;;;;;;;;;13.00;13.00;;;;;26.90;41.39;100739.16;2106738;27;47285;-52
2022/08/25 04:39:27;;;;;;;;;14.00;14.00;;;;;26.91;40.93;100746.31;2105798;27;47335;-53
2022/08/25 04:40:27;;;;;;;;;11.80;11.80;;;;;26.91;40.96;100740.88;2104473;28;47465;-53
2022/08/25 04:41:29;;;;;;;;;11.00;10.75;;;;;26.92;41.14;100739.00;2105792;27;47365;-54
2022/08/25 04:42:29;;;;;;;;;12.40;12.40;;;;;26.92;40.90;100737.16;2104576;27;47495;-52